createdAt,value
2022-08-22T00:01:12.195Z,2.50
2022-08-22T00:02:49.790Z,2.05
2022-08-22T00:03:39.698Z,2.30
2022-08-22T00:06:32.702Z,1.90
2022-08-22T00:09:19.797Z,2.35
2022-08-22T00:13:03.054Z,2.33
2022-08-22T00:15:42.997Z,2.45
2022-08-22T00:18:33.986Z,1.98
2022-08-22T00:21:15.744Z,1.85
2022-08-22T00:24:03.097Z,2.00
2022-08-22T00:26:45.485Z,1.58
2022-08-22T00:29:43.502Z,2.20
2022-08-22T00:32:33.862Z,1.70
2022-08-22T00:35:22.362Z,2.50
2022-08-22T00:38:11.177Z,2.03
2022-08-22T00:40:46.599Z,2.58
2022-08-22T00:43:29.884Z,1.98
2022-08-22T00:46:20.708Z,2.13
2022-08-22T00:48:54.084Z,2.40
2022-08-22T00:52:01.147Z,2.40
2022-08-22T00:54:32.863Z,2.05
2022-08-22T00:57:32.573Z,1.92
2022-08-22T01:00:12.803Z,1.92
2022-08-22T01:03:06.328Z,1.92
2022-08-22T01:06:17.828Z,1.73
2022-08-22T01:09:10.136Z,2.25
2022-08-22T01:12:06.847Z,2.60
2022-08-22T01:14:52.701Z,2.10
2022-08-22T01:17:48.418Z,2.40
2022-08-22T01:20:35.363Z,2.00
2022-08-22T01:23:18.833Z,2.50
2022-08-22T01:25:50.881Z,2.22
2022-08-22T01:28:41.790Z,1.95
2022-08-22T01:31:47.737Z,2.67
2022-08-22T01:34:23.889Z,2.45
2022-08-22T02:09:32.388Z,2.47
2022-08-22T02:12:21.868Z,2.30
2022-08-22T02:15:14.206Z,2.65
2022-08-22T02:18:02.974Z,2.80
2022-08-22T02:20:55.580Z,3.03
2022-08-22T02:23:48.770Z,2.72
2022-08-22T02:26:33.278Z,2.77
2022-08-22T02:29:07.960Z,2.90
2022-08-22T02:31:57.723Z,2.78
2022-08-22T02:34:54.542Z,2.28
2022-08-22T02:37:34.480Z,2.58
2022-08-22T02:40:09.968Z,2.63
2022-08-22T02:42:56.182Z,2.30
2022-08-22T02:45:41.600Z,2.25
2022-08-22T02:48:10.113Z,2.10
2022-08-22T02:50:57.330Z,2.20
2022-08-22T02:53:41.736Z,2.42
2022-08-22T02:56:18.335Z,2.25
2022-08-22T02:59:15.053Z,2.45
2022-08-22T03:01:46.060Z,2.80
2022-08-22T03:04:46.912Z,2.22
2022-08-22T03:07:20.962Z,2.35
2022-08-22T03:10:07.167Z,2.28
2022-08-22T03:12:42.984Z,2.40
2022-08-22T03:15:49.542Z,2.95
2022-08-22T03:18:27.451Z,2.60
2022-08-22T03:24:43.920Z,2.80
2022-08-22T03:27:38.989Z,2.50
2022-08-22T03:30:44.070Z,2.88
2022-08-22T03:33:17.743Z,2.95
2022-08-22T03:35:48.361Z,2.42
2022-08-22T03:38:34.885Z,2.80
2022-08-22T03:41:31.172Z,2.75
2022-08-22T03:44:09.295Z,2.67
2022-08-22T03:46:58.571Z,3.13
2022-08-22T03:49:59.842Z,2.75
2022-08-22T03:53:18.995Z,3.15
2022-08-22T03:56:05.553Z,2.55
2022-08-22T03:59:09.891Z,3.05
2022-08-22T04:02:42.461Z,3.40
2022-08-22T04:05:09.510Z,2.90
2022-08-22T04:08:02.703Z,2.40
2022-08-22T04:10:51.839Z,2.70
2022-08-22T04:13:54.315Z,3.10
2022-08-22T04:17:01.072Z,3.20
2022-08-22T04:19:56.747Z,2.78
2022-08-22T04:22:49.712Z,2.75
2022-08-22T04:25:36.281Z,2.83
2022-08-22T04:28:33.089Z,2.75
2022-08-22T04:34:42.610Z,2.80
2022-08-22T04:37:26.168Z,3.25
2022-08-22T04:40:07.158Z,2.95
2022-08-22T04:42:40.493Z,3.13
2022-08-22T04:45:35.654Z,3.13
2022-08-22T04:48:15.968Z,3.10
2022-08-22T04:51:05.462Z,2.88
2022-08-22T04:54:00.223Z,2.97
2022-08-22T04:56:39.011Z,3.03
2022-08-22T04:59:12.357Z,2.85
2022-08-22T05:01:47.846Z,3.30
2022-08-22T05:04:17.446Z,2.80
2022-08-22T05:06:47.630Z,2.95
2022-08-22T05:09:17.946Z,3.00
2022-08-22T05:11:45.884Z,2.90
2022-08-22T05:14:17.025Z,3.15
2022-08-22T05:16:45.644Z,3.30
2022-08-22T05:19:26.210Z,3.03
2022-08-22T05:21:55.419Z,3.97
2022-08-22T05:24:39.937Z,3.25
2022-08-22T05:27:11.710Z,3.05
2022-08-22T05:29:40.279Z,3.63
2022-08-22T05:32:10.127Z,3.20
2022-08-22T05:34:39.301Z,3.08
2022-08-22T05:37:08.509Z,3.20
2022-08-22T05:39:35.426Z,2.90
2022-08-22T05:42:02.820Z,2.45
2022-08-22T05:44:34.340Z,3.25
2022-08-22T05:47:02.275Z,3.30
2022-08-22T05:49:38.883Z,3.20
2022-08-22T05:52:40.157Z,3.15
2022-08-22T05:55:31.965Z,3.97
2022-08-22T05:58:17.991Z,3.20
2022-08-22T06:00:47.163Z,2.72
2022-08-22T06:03:20.001Z,2.90
2022-08-22T06:05:48.770Z,3.22
2022-08-22T06:08:32.465Z,2.83
2022-08-22T06:13:41.217Z,2.92
2022-08-22T06:16:11.838Z,3.13
2022-08-22T06:18:40.169Z,3.00
2022-08-22T06:21:10.193Z,2.78
2022-08-22T06:23:46.777Z,3.50
2022-08-22T06:26:20.740Z,2.60
2022-08-22T06:28:55.403Z,3.03
2022-08-22T06:31:34.263Z,2.85
2022-08-22T06:34:06.521Z,2.90
2022-08-22T06:36:34.740Z,2.65
2022-08-22T06:39:17.262Z,2.88
2022-08-22T06:41:47.617Z,2.97
2022-08-22T06:44:16.293Z,3.33
2022-08-22T06:46:43.677Z,2.90
2022-08-22T06:49:10.842Z,2.97
2022-08-22T06:51:38.408Z,3.25
2022-08-22T06:54:07.290Z,3.08
2022-08-22T06:56:40.622Z,3.03
2022-08-22T06:59:11.555Z,2.97
2022-08-22T07:02:17.399Z,2.75
2022-08-22T07:04:45.589Z,2.40
2022-08-22T07:07:15.070Z,3.03
2022-08-22T07:09:43.013Z,2.50
2022-08-22T07:12:28.733Z,2.60
2022-08-22T07:15:00.267Z,2.47
2022-08-22T07:17:30.224Z,2.45
2022-08-22T07:20:13.351Z,2.53
2022-08-22T07:22:40.217Z,2.95
2022-08-22T07:25:09.587Z,2.50
2022-08-22T07:27:57.739Z,2.60
2022-08-22T07:30:28.150Z,2.70
2022-08-22T07:33:25.694Z,2.78
2022-08-22T07:36:01.645Z,2.95
2022-08-22T07:38:42.976Z,2.80
2022-08-22T07:41:20.107Z,2.60
2022-08-22T07:44:00.260Z,2.90
2022-08-22T07:46:35.895Z,2.75
2022-08-22T07:49:16.584Z,2.85
2022-08-22T07:51:45.391Z,2.60
2022-08-22T07:54:14.405Z,2.38
2022-08-22T07:57:21.296Z,2.63
2022-08-22T07:59:52.878Z,2.53
2022-08-22T08:02:20.087Z,2.92
2022-08-22T08:04:49.281Z,2.83
2022-08-22T08:07:17.215Z,2.53
2022-08-22T08:09:48.708Z,2.15
2022-08-22T08:12:15.854Z,2.33
2022-08-22T08:14:44.441Z,2.90
2022-08-22T08:17:32.027Z,3.30
2022-08-22T08:20:00.152Z,2.70
2022-08-22T08:22:27.323Z,2.92
2022-08-22T08:24:56.296Z,2.38
2022-08-22T08:27:43.737Z,2.60
2022-08-22T08:30:16.867Z,2.60
2022-08-22T08:32:49.085Z,3.08
2022-08-22T08:35:25.438Z,2.58
2022-08-22T08:37:54.984Z,2.30
2022-08-22T08:40:31.982Z,2.55
2022-08-22T08:43:23.686Z,2.72
2022-08-22T08:46:11.530Z,2.33
2022-08-22T08:52:02.764Z,2.70
2022-08-22T08:54:37.554Z,2.60
2022-08-22T08:57:31.080Z,2.53
2022-08-22T09:02:50.534Z,2.70
2022-08-22T09:05:43.539Z,2.42
2022-08-22T09:08:27.706Z,2.40
2022-08-22T09:11:14.272Z,2.67
2022-08-22T09:14:12.715Z,2.90
2022-08-22T09:21:03.862Z,2.53
2022-08-22T09:23:49.330Z,2.78
2022-08-22T09:26:51.017Z,2.72
2022-08-22T09:29:54.680Z,3.45
2022-08-22T09:32:34.643Z,2.95
2022-08-22T09:38:30.151Z,2.70
2022-08-22T09:40:15.704Z,2.60
2022-08-22T09:45:42.895Z,2.53
2022-08-22T09:51:49.347Z,2.67
2022-08-22T09:57:28.176Z,2.83
2022-08-22T09:59:58.043Z,2.90
2022-08-22T10:03:01.560Z,2.95
2022-08-22T10:05:47.254Z,2.47
2022-08-22T10:08:26.122Z,2.78
2022-08-22T10:11:14.556Z,3.17
2022-08-22T10:14:01.714Z,2.60
2022-08-22T10:16:44.558Z,2.65
2022-08-22T10:19:23.739Z,2.95
2022-08-22T10:22:31.195Z,3.35
2022-08-22T10:25:20.038Z,2.88
2022-08-22T10:27:53.474Z,2.75
2022-08-22T10:31:18.672Z,2.83
2022-08-22T10:34:13.596Z,2.80
2022-08-22T10:36:59.471Z,3.05
2022-08-22T10:39:28.951Z,2.60
2022-08-22T10:45:24.074Z,2.97
2022-08-22T10:48:30.761Z,2.88
2022-08-22T10:51:16.558Z,2.65
2022-08-22T10:53:57.524Z,2.85
2022-08-22T10:56:27.574Z,3.40
2022-08-22T10:59:16.687Z,3.20
2022-08-22T11:01:54.228Z,2.60
2022-08-22T11:04:28.765Z,3.03
2022-08-22T11:07:04.782Z,3.20
2022-08-22T11:09:40.238Z,2.92
2022-08-22T11:12:16.119Z,3.00
2022-08-22T11:15:03.264Z,2.78
2022-08-22T11:17:54.296Z,2.20
2022-08-22T11:21:02.864Z,2.72
2022-08-22T11:24:09.268Z,2.72
2022-08-22T11:26:53.362Z,2.60
2022-08-22T11:29:29.491Z,2.65
2022-08-22T11:32:08.536Z,3.00
2022-08-22T11:35:09.341Z,2.55
2022-08-22T11:38:22.023Z,2.88
2022-08-22T11:41:15.555Z,3.15
2022-08-22T11:43:50.193Z,2.72
2022-08-22T11:46:31.876Z,2.90
2022-08-22T11:49:18.922Z,2.90
2022-08-22T11:51:57.447Z,2.83
2022-08-22T11:54:53.515Z,3.15
2022-08-22T11:57:37.528Z,2.70
2022-08-22T12:00:24.311Z,3.72
2022-08-22T12:02:54.892Z,3.05
2022-08-22T12:05:29.786Z,3.13
2022-08-22T12:08:14.043Z,3.40
2022-08-22T12:10:49.488Z,3.85
2022-08-22T12:13:34.892Z,2.88
2022-08-22T12:16:16.879Z,2.55
2022-08-22T12:19:14.139Z,2.72
2022-08-22T12:22:12.822Z,2.60
2022-08-22T12:25:03.866Z,2.80
2022-08-22T12:27:54.070Z,2.78
2022-08-22T12:30:28.562Z,3.17
2022-08-22T12:33:33.012Z,2.75
2022-08-22T12:36:27.988Z,2.50
2022-08-22T12:39:32.996Z,2.90
2022-08-22T12:42:49.090Z,3.17
2022-08-22T12:45:20.544Z,2.97
2022-08-22T12:47:55.549Z,2.70
2022-08-22T12:50:48.953Z,2.50
2022-08-22T12:53:28.416Z,2.45
2022-08-22T12:56:10.334Z,2.40
2022-08-22T12:58:51.198Z,2.80
2022-08-22T13:01:18.866Z,2.70
2022-08-22T13:04:02.655Z,2.55
2022-08-22T13:06:48.799Z,2.80
2022-08-22T13:09:22.777Z,2.92
2022-08-22T13:11:58.266Z,2.72
2022-08-22T13:14:26.534Z,2.70
2022-08-22T13:16:59.248Z,2.63
2022-08-22T13:19:33.091Z,2.25
2022-08-22T13:22:04.173Z,2.80
2022-08-22T13:24:41.753Z,2.60
2022-08-22T13:27:50.542Z,2.42
2022-08-22T13:30:39.226Z,2.33
2022-08-22T13:33:14.466Z,2.60
2022-08-22T13:35:52.311Z,2.58
2022-08-22T13:38:26.455Z,2.47
2022-08-22T13:40:54.992Z,3.08
2022-08-22T13:43:30.892Z,2.53
2022-08-22T13:46:02.088Z,2.60
2022-08-22T13:48:50.504Z,2.40
2022-08-22T13:51:54.892Z,2.83
2022-08-22T13:54:40.556Z,2.90
2022-08-22T13:57:28.844Z,2.60
2022-08-22T14:00:33.923Z,2.80
2022-08-22T14:03:09.523Z,2.75
2022-08-22T14:05:54.272Z,2.55
2022-08-22T14:08:45.859Z,2.60
2022-08-22T14:11:42.354Z,2.80
2022-08-22T14:14:11.257Z,2.83
2022-08-22T14:16:59.235Z,2.65
2022-08-22T14:19:29.712Z,2.60
2022-08-22T14:22:05.233Z,2.40
2022-08-22T14:24:44.945Z,3.00
2022-08-22T14:27:26.984Z,2.72
2022-08-22T14:30:06.273Z,2.47
2022-08-22T14:33:01.180Z,2.70
2022-08-22T14:35:35.071Z,2.75
2022-08-22T14:38:29.727Z,2.33
2022-08-22T14:41:11.283Z,2.90
2022-08-22T14:43:57.362Z,2.35
2022-08-22T14:46:32.466Z,2.50
2022-08-22T14:49:16.226Z,2.28
2022-08-22T14:51:55.215Z,2.03
2022-08-22T14:54:23.233Z,2.25
2022-08-22T14:56:57.065Z,2.33
2022-08-22T14:59:50.211Z,2.60
2022-08-22T15:02:27.961Z,2.28
2022-08-22T15:04:59.109Z,2.45
2022-08-22T15:07:30.901Z,2.63
2022-08-22T15:10:11.845Z,2.67
2022-08-22T15:12:45.257Z,2.28
2022-08-22T15:15:53.616Z,2.10
2022-08-22T15:18:27.888Z,2.60
2022-08-22T15:21:25.465Z,2.40
2022-08-22T15:24:02.502Z,2.65
2022-08-22T15:26:38.779Z,1.75
2022-08-22T15:29:08.983Z,2.15
2022-08-22T15:31:37.908Z,2.45
2022-08-22T15:37:17.049Z,2.40
2022-08-22T15:40:08.182Z,2.60
2022-08-22T15:42:47.679Z,2.30
2022-08-22T15:45:36.219Z,2.60
2022-08-22T15:48:38.124Z,2.47
2022-08-22T15:51:10.479Z,2.55
2022-08-22T15:56:13.285Z,2.22
2022-08-22T16:44:37.244Z,1.90
2022-08-22T16:47:12.101Z,2.50
2022-08-22T16:49:51.515Z,2.13
2022-08-22T16:52:24.702Z,2.53
2022-08-22T16:55:04.368Z,2.58
2022-08-22T16:58:06.160Z,2.58
2022-08-22T17:00:36.506Z,2.65
2022-08-22T17:03:27.560Z,2.35
2022-08-22T17:06:04.825Z,2.40
2022-08-22T17:08:53.889Z,2.20
2022-08-22T17:11:34.203Z,2.30
2022-08-22T17:14:35.568Z,2.55
2022-08-22T17:17:16.549Z,2.33
2022-08-22T17:20:12.087Z,2.10
2022-08-22T17:22:54.299Z,2.78
2022-08-22T17:25:51.052Z,2.15
2022-08-22T17:28:42.166Z,2.67
2022-08-22T17:31:15.048Z,2.30
2022-08-22T17:33:48.838Z,2.63
2022-08-22T17:36:26.493Z,2.58
2022-08-22T17:39:25.579Z,2.60
2022-08-22T17:42:20.785Z,2.38
2022-08-22T17:45:01.052Z,2.72
2022-08-22T17:47:43.947Z,2.60
2022-08-22T17:50:30.599Z,2.70
2022-08-22T17:53:02.279Z,2.97
2022-08-22T17:55:32.694Z,3.03
2022-08-22T17:58:13.178Z,3.13
2022-08-22T18:01:13.596Z,2.92
2022-08-22T18:03:47.347Z,2.60
2022-08-22T18:06:26.739Z,2.95
2022-08-22T18:09:15.439Z,3.45
2022-08-22T18:12:16.833Z,2.30
2022-08-22T18:14:51.381Z,2.72
2022-08-22T18:17:20.791Z,2.95
2022-08-22T18:20:09.936Z,3.35
2022-08-22T18:22:51.013Z,2.80
2022-08-22T18:25:17.936Z,3.08
2022-08-22T18:27:57.724Z,3.05
2022-08-22T18:30:26.853Z,3.15
2022-08-22T18:32:58.101Z,2.58
2022-08-22T18:35:43.567Z,2.58
2022-08-22T18:38:45.918Z,2.50
2022-08-22T18:41:39.119Z,2.72
2022-08-22T18:44:11.179Z,2.75
2022-08-22T18:46:38.043Z,2.95
2022-08-22T18:49:20.811Z,2.85
2022-08-22T18:52:09.258Z,3.00
2022-08-22T18:54:57.965Z,2.75
2022-08-22T18:57:43.157Z,2.78
2022-08-22T19:00:36.214Z,2.40
2022-08-22T19:03:21.461Z,2.57
2022-08-22T19:06:16.409Z,2.28
2022-08-22T19:09:13.782Z,2.58
2022-08-22T19:11:58.425Z,2.53
2022-08-22T19:15:00.758Z,2.40
2022-08-22T19:18:12.313Z,2.67
2022-08-22T19:20:58.522Z,2.53
2022-08-22T19:23:40.486Z,3.88
2022-08-22T19:26:26.020Z,3.10
2022-08-22T19:29:26.849Z,2.17
2022-08-22T19:31:57.879Z,2.17
2022-08-22T19:34:30.691Z,2.53
2022-08-22T19:37:32.232Z,2.40
2022-08-22T19:40:09.994Z,2.13
2022-08-22T19:42:41.582Z,2.40
2022-08-22T19:45:25.730Z,2.75
2022-08-22T19:47:59.148Z,2.13
2022-08-22T19:50:30.897Z,2.55
2022-08-22T19:52:58.025Z,2.15
2022-08-22T19:55:31.199Z,2.45
2022-08-22T19:58:31.875Z,2.20
2022-08-22T20:01:11.687Z,2.28
2022-08-22T20:03:53.321Z,2.53
2022-08-22T20:06:44.863Z,2.60
2022-08-22T20:09:24.728Z,2.17
2022-08-22T20:12:15.095Z,2.30
2022-08-22T20:14:43.479Z,2.55
2022-08-22T20:17:26.581Z,2.53
2022-08-22T20:20:18.148Z,2.70
2022-08-22T20:22:49.393Z,2.70
2022-08-22T20:25:42.842Z,2.70
2022-08-22T20:28:26.500Z,2.35
2022-08-22T20:31:00.402Z,2.92
2022-08-22T20:33:33.693Z,2.75
2022-08-22T20:36:24.225Z,2.88
2022-08-22T20:38:56.204Z,2.72
2022-08-22T20:41:24.391Z,3.10
2022-08-22T20:44:01.271Z,2.70
2022-08-22T20:46:38.800Z,3.10
2022-08-22T20:49:18.725Z,3.08
2022-08-22T20:52:02.235Z,2.90
2022-08-22T20:54:31.329Z,2.53
2022-08-22T20:57:17.106Z,2.97
2022-08-22T20:59:55.649Z,2.90
2022-08-22T21:02:38.293Z,2.70
2022-08-22T21:05:06.522Z,3.13
2022-08-22T21:07:35.889Z,2.90
2022-08-22T21:10:28.237Z,2.63
2022-08-22T21:13:20.307Z,3.08
2022-08-22T21:15:49.301Z,3.03
2022-08-22T21:19:06.893Z,3.08
2022-08-22T21:21:34.447Z,3.20
2022-08-22T21:24:03.082Z,2.95
2022-08-22T21:26:38.105Z,2.65
2022-08-22T21:29:07.042Z,2.80
2022-08-22T21:31:46.155Z,3.13
2022-08-22T21:34:19.053Z,3.00
2022-08-22T21:36:45.864Z,2.88
2022-08-22T21:39:25.343Z,3.10
2022-08-22T21:42:10.338Z,2.90
2022-08-22T21:44:41.825Z,3.67
2022-08-22T21:47:30.483Z,3.15
2022-08-22T21:50:13.445Z,2.92
2022-08-22T21:53:03.050Z,2.83
2022-08-22T21:55:36.781Z,2.70
2022-08-22T21:58:06.511Z,3.53
2022-08-22T22:00:49.814Z,3.47
2022-08-22T22:03:18.361Z,3.08
2022-08-22T22:05:45.343Z,3.22
2022-08-22T22:08:12.304Z,3.38
2022-08-22T22:10:40.768Z,3.30
2022-08-22T22:13:07.842Z,3.67
2022-08-22T22:15:44.205Z,3.42
2022-08-22T22:18:12.677Z,3.40
2022-08-22T22:20:39.853Z,3.33
2022-08-22T22:23:06.981Z,3.90
2022-08-22T22:25:41.389Z,3.40
2022-08-22T22:28:17.360Z,3.65
2022-08-22T22:30:44.970Z,3.92
2022-08-22T22:33:12.304Z,3.17
2022-08-22T22:35:39.660Z,3.50
2022-08-22T22:38:07.024Z,3.63
2022-08-22T22:40:33.952Z,3.25
2022-08-22T22:43:00.982Z,3.50
2022-08-22T22:45:27.898Z,3.60
2022-08-22T22:47:54.804Z,3.35
2022-08-22T22:50:21.744Z,3.38
2022-08-22T22:52:48.590Z,3.47
2022-08-22T22:55:24.283Z,3.38
2022-08-22T22:57:58.466Z,3.47
2022-08-22T23:00:30.628Z,3.50
2022-08-22T23:03:01.909Z,3.58
2022-08-22T23:05:31.857Z,3.65
2022-08-22T23:07:58.976Z,3.47
2022-08-22T23:10:27.142Z,3.50
2022-08-22T23:12:54.067Z,4.00
2022-08-22T23:15:21.297Z,3.78
2022-08-22T23:17:48.432Z,4.53
2022-08-22T23:20:15.585Z,3.38
2022-08-22T23:22:45.055Z,3.83
2022-08-22T23:25:11.907Z,3.28
2022-08-22T23:27:38.749Z,4.00
2022-08-22T23:30:09.124Z,3.53
2022-08-22T23:32:36.999Z,3.58
2022-08-22T23:35:04.514Z,3.78
2022-08-22T23:37:33.928Z,3.42
2022-08-22T23:40:00.970Z,3.88
2022-08-22T23:42:29.396Z,3.42
2022-08-22T23:44:56.415Z,3.40
2022-08-22T23:47:23.298Z,3.60
2022-08-22T23:49:50.171Z,3.38
2022-08-22T23:52:17.190Z,3.80
2022-08-22T23:54:44.142Z,3.17
2022-08-22T23:57:11.628Z,3.58
2022-08-22T23:59:42.339Z,3.72
